Time;durP1;ratioP1;P1;durP2;ratioP2;P2;SDS_P1;SDS_P2;PMS_P1;PMS_P2;Temp;Humidity;BMP_temperature;BMP_pressure;BME280_temperature;BME280_humidity;BME280_pressure;Samples;Min_cycle;Max_cycle;Signal;HPM_P1;HPM_P2
2021/08/21 00:01:49;;;;;;;5.05;2.40;;;19.60;58.20;;;;;;5039077;28;20572;-68
2021/08/21 00:04:15;;;;;;;3.65;2.40;;;19.60;58.20;;;;;;5052600;28;20382;-69
2021/08/21 00:06:44;;;;;;;3.30;2.40;;;19.60;58.30;;;;;;5052567;28;20025;-68
2021/08/21 00:09:12;;;;;;;5.82;2.28;;;19.50;58.40;;;;;;5052510;28;20013;-68
2021/08/21 00:11:38;;;;;;;3.55;2.53;;;19.50;58.40;;;;;;5052412;28;20111;-69
2021/08/21 00:14:05;;;;;;;5.30;2.25;;;19.50;58.40;;;;;;5052480;28;20096;-69
2021/08/21 00:16:31;;;;;;;8.60;3.35;;;19.50;58.50;;;;;;5052374;28;20048;-69
2021/08/21 00:18:57;;;;;;;3.80;2.53;;;19.40;58.40;;;;;;5052474;28;20029;-68
2021/08/21 00:21:24;;;;;;;3.17;2.58;;;19.40;58.50;;;;;;5052248;28;20483;-69
2021/08/21 00:23:52;;;;;;;3.85;2.70;;;19.30;58.60;;;;;;5051640;28;20459;-68
2021/08/21 00:26:18;;;;;;;5.38;2.58;;;19.30;58.80;;;;;;5034545;28;20017;-68
2021/08/21 00:28:44;;;;;;;4.18;2.88;;;19.30;58.70;;;;;;5052106;28;20059;-69
2021/08/21 00:31:10;;;;;;;4.57;2.63;;;19.30;58.80;;;;;;5049608;28;20103;-69
2021/08/21 00:33:36;;;;;;;4.13;2.90;;;19.30;59.00;;;;;;5051655;28;20096;-69
2021/08/21 00:36:02;;;;;;;6.82;2.75;;;19.20;59.70;;;;;;5052232;28;20024;-68
2021/08/21 00:38:27;;;;;;;3.88;2.47;;;19.20;59.20;;;;;;5052103;28;20044;-69
2021/08/21 00:40:53;;;;;;;3.33;2.42;;;19.20;59.10;;;;;;5052209;28;20079;-68
2021/08/21 00:43:20;;;;;;;3.03;2.08;;;19.20;59.10;;;;;;5052072;28;20063;-69
2021/08/21 00:45:46;;;;;;;3.65;2.25;;;19.10;59.10;;;;;;5052149;28;20013;-68
2021/08/21 00:48:12;;;;;;;3.60;2.55;;;19.10;59.10;;;;;;5052116;28;20020;-69
2021/08/21 00:50:38;;;;;;;4.32;2.20;;;19.10;59.30;;;;;;5052058;28;20025;-68
2021/08/21 00:53:03;;;;;;;3.50;2.58;;;19.10;59.20;;;;;;5052066;28;20025;-68
2021/08/21 00:55:30;;;;;;;9.25;2.42;;;19.10;59.30;;;;;;5051864;28;20029;-68
2021/08/21 00:57:56;;;;;;;4.07;2.30;;;19.10;59.40;;;;;;5052114;28;20519;-69
2021/08/21 01:00:22;;;;;;;4.80;2.80;;;19.10;59.40;;;;;;5051981;28;20017;-69
2021/08/21 01:02:48;;;;;;;4.72;2.90;;;19.10;59.60;;;;;;5051735;28;20029;-69
2021/08/21 01:05:15;;;;;;;3.63;2.30;;;19.00;59.60;;;;;;5051779;28;20029;-69
2021/08/21 01:07:41;;;;;;;3.92;2.80;;;19.00;59.60;;;;;;5051837;28;20031;-69
2021/08/21 01:10:18;;;;;;;3.53;2.42;;;19.00;59.60;;;;;;5033959;28;20025;-68
2021/08/21 01:12:48;;;;;;;10.13;3.25;;;18.90;59.80;;;;;;5051762;28;20021;-69
2021/08/21 01:15:20;;;;;;;4.43;3.05;;;19.00;59.80;;;;;;5051495;28;20017;-69
2021/08/21 01:17:46;;;;;;;6.47;3.15;;;18.90;60.00;;;;;;5036262;28;20050;-69
2021/08/21 01:20:12;;;;;;;3.05;2.35;;;18.90;59.80;;;;;;5051566;28;20013;-68
2021/08/21 01:22:38;;;;;;;3.45;2.35;;;18.90;59.70;;;;;;5051448;28;20150;-69
2021/08/21 01:25:13;;;;;;;3.05;2.60;;;18.90;59.90;;;;;;5051611;28;20028;-69
2021/08/21 01:27:40;;;;;;;5.07;3.20;;;18.80;60.10;;;;;;5035384;28;20054;-68
2021/08/21 01:30:06;;;;;;;4.70;2.22;;;18.80;60.00;;;;;;5051653;28;20029;-69
2021/08/21 01:32:32;;;;;;;4.30;2.70;;;18.80;60.00;;;;;;5048309;28;20583;-68
2021/08/21 01:34:58;;;;;;;3.33;2.50;;;18.80;60.20;;;;;;5054390;28;20057;-68
2021/08/21 01:37:26;;;;;;;2.92;2.40;;;18.80;60.30;;;;;;5055225;28;20074;-68
2021/08/21 01:39:53;;;;;;;3.53;2.40;;;18.70;60.30;;;;;;5055258;28;20015;-69
2021/08/21 01:42:20;;;;;;;4.80;2.55;;;18.70;60.30;;;;;;5055104;28;20071;-68
2021/08/21 01:44:46;;;;;;;5.80;2.70;;;18.70;60.90;;;;;;5055171;28;20061;-68
2021/08/21 01:47:13;;;;;;;4.72;3.08;;;18.70;60.80;;;;;;5055037;28;20029;-69
2021/08/21 01:49:40;;;;;;;6.97;3.38;;;18.70;61.00;;;;;;5038568;28;20040;-68
2021/08/21 01:52:06;;;;;;;4.57;2.70;;;18.70;61.00;;;;;;5055008;28;20470;-69
2021/08/21 01:54:35;;;;;;;4.55;2.95;;;18.70;61.00;;;;;;5054794;28;20534;-68
2021/08/21 01:57:03;;;;;;;6.05;3.08;;;18.70;60.80;;;;;;5055163;28;20044;-69
2021/08/21 01:59:30;;;;;;;4.45;3.00;;;18.70;60.80;;;;;;5054807;28;20053;-69
2021/08/21 02:01:57;;;;;;;9.15;2.40;;;18.60;60.80;;;;;;5049105;28;20024;-69
2021/08/21 02:04:24;;;;;;;10.38;3.85;;;18.70;60.80;;;;;;5044303;28;20072;-68
2021/08/21 02:06:50;;;;;;;8.30;3.50;;;18.60;60.90;;;;;;5054621;28;20028;-69
2021/08/21 02:09:18;;;;;;;4.95;3.00;;;18.60;61.10;;;;;;5054674;28;20434;-68
2021/08/21 02:11:45;;;;;;;7.35;3.33;;;18.60;61.00;;;;;;5054849;28;20017;-69
2021/08/21 02:14:11;;;;;;;9.93;3.92;;;18.60;61.10;;;;;;5054618;28;20017;-69
2021/08/21 02:16:37;;;;;;;8.98;4.25;;;18.60;61.10;;;;;;5036624;28;20382;-69
2021/08/21 02:19:03;;;;;;;8.95;3.47;;;18.50;60.90;;;;;;5054552;28;20033;-69
2021/08/21 02:21:29;;;;;;;7.93;3.50;;;18.60;61.00;;;;;;5054406;28;20025;-68
2021/08/21 02:23:58;;;;;;;13.82;3.65;;;18.50;61.00;;;;;;5054412;28;20025;-69
2021/08/21 02:26:25;;;;;;;9.18;4.18;;;18.50;61.50;;;;;;5054106;28;20143;-68
2021/08/21 02:28:51;;;;;;;17.92;4.28;;;18.50;61.90;;;;;;5054112;28;20414;-69
2021/08/21 02:31:17;;;;;;;8.40;3.22;;;18.50;61.70;;;;;;5054140;28;20039;-69
2021/08/21 02:33:42;;;;;;;14.55;3.08;;;18.50;61.50;;;;;;5054013;28;20044;-68
2021/08/21 02:36:08;;;;;;;3.88;2.65;;;18.50;61.90;;;;;;5054237;28;20021;-69
2021/08/21 02:38:34;;;;;;;5.30;2.60;;;18.40;61.60;;;;;;5054083;28;20017;-69
2021/08/21 02:40:59;;;;;;;3.15;2.35;;;18.50;61.60;;;;;;5054139;28;20025;-69
2021/08/21 02:43:25;;;;;;;4.20;2.60;;;18.40;61.40;;;;;;5053879;28;20013;-68
2021/08/21 02:45:51;;;;;;;6.13;2.65;;;18.40;61.40;;;;;;5053379;28;20021;-68
2021/08/21 02:48:17;;;;;;;5.25;2.65;;;18.40;61.70;;;;;;5035996;28;20018;-68
2021/08/21 02:50:43;;;;;;;3.60;2.55;;;18.40;61.60;;;;;;5053850;28;20017;-68
2021/08/21 02:53:09;;;;;;;4.25;3.00;;;18.40;61.50;;;;;;5053770;28;20425;-69
2021/08/21 02:55:35;;;;;;;3.67;2.85;;;18.40;62.10;;;;;;5053692;28;20025;-68
2021/08/21 02:58:00;;;;;;;4.60;2.92;;;18.30;62.10;;;;;;5053798;28;20105;-69
2021/08/21 03:00:26;;;;;;;4.45;3.17;;;18.30;62.00;;;;;;5053570;28;20039;-68
2021/08/21 03:02:52;;;;;;;7.72;3.03;;;18.30;62.10;;;;;;5040322;28;20049;-68
2021/08/21 03:05:18;;;;;;;4.07;2.78;;;18.30;62.10;;;;;;5050635;28;20059;-69
2021/08/21 03:07:44;;;;;;;5.25;2.72;;;18.30;62.20;;;;;;5035500;28;20025;-69
2021/08/21 03:10:10;;;;;;;3.78;2.63;;;18.30;62.20;;;;;;5053609;28;20466;-69
2021/08/21 03:12:36;;;;;;;4.47;2.35;;;18.30;62.20;;;;;;5053378;28;20379;-68
2021/08/21 03:15:03;;;;;;;3.45;2.50;;;18.20;62.00;;;;;;5053776;28;20036;-68
2021/08/21 03:17:29;;;;;;;4.57;2.63;;;18.20;62.30;;;;;;5053344;28;20035;-69
2021/08/21 03:19:55;;;;;;;6.18;2.75;;;18.20;62.10;;;;;;5053324;28;20096;-68
2021/08/21 03:22:20;;;;;;;6.55;2.90;;;18.20;62.30;;;;;;5053067;28;20025;-68
2021/08/21 03:24:46;;;;;;;7.63;3.65;;;18.20;62.60;;;;;;5053101;28;20047;-68
2021/08/21 03:27:12;;;;;;;4.68;3.20;;;18.20;62.50;;;;;;5053176;28;20029;-68
2021/08/21 03:29:38;;;;;;;4.45;2.85;;;18.20;62.70;;;;;;5052960;28;20048;-68
2021/08/21 03:32:04;;;;;;;5.45;2.70;;;18.20;62.70;;;;;;5053070;28;20017;-68
2021/08/21 03:34:31;;;;;;;3.80;2.53;;;18.10;62.60;;;;;;5049703;28;20382;-69
2021/08/21 03:36:57;;;;;;;3.13;2.38;;;18.10;62.60;;;;;;5053046;28;20139;-68
2021/08/21 03:39:23;;;;;;;8.05;2.95;;;18.10;62.60;;;;;;5035032;28;20113;-68
2021/08/21 03:41:49;;;;;;;4.22;3.10;;;18.10;62.60;;;;;;5052841;28;20024;-69
2021/08/21 03:44:14;;;;;;;6.13;2.80;;;18.10;62.70;;;;;;5034902;28;20029;-69
2021/08/21 03:46:40;;;;;;;3.50;2.78;;;18.10;62.80;;;;;;5052785;28;20545;-69
2021/08/21 03:49:06;;;;;;;7.25;3.10;;;18.10;62.80;;;;;;5052784;28;20371;-68
2021/08/21 03:51:32;;;;;;;5.60;3.03;;;18.00;62.90;;;;;;5052640;28;20111;-68
2021/08/21 03:53:58;;;;;;;3.10;2.75;;;18.00;63.20;;;;;;5053078;28;20021;-69
2021/08/21 03:56:24;;;;;;;10.57;2.67;;;18.00;63.10;;;;;;5052326;28;20024;-69
2021/08/21 03:58:49;;;;;;;4.68;2.90;;;18.00;63.10;;;;;;5052059;28;20028;-68
2021/08/21 04:01:15;;;;;;;4.47;2.70;;;18.00;63.10;;;;;;5052467;28;20045;-68
2021/08/21 04:03:41;;;;;;;4.75;2.95;;;18.00;63.20;;;;;;5052353;28;20025;-69
2021/08/21 04:06:08;;;;;;;5.20;3.13;;;18.00;63.30;;;;;;5052714;28;20082;-69
2021/08/21 04:08:33;;;;;;;7.03;3.15;;;18.00;63.50;;;;;;5052555;28;20025;-68
2021/08/21 04:10:59;;;;;;;6.43;3.55;;;18.00;63.50;;;;;;5052618;28;20385;-69
2021/08/21 04:13:27;;;;;;;5.28;3.22;;;18.00;63.50;;;;;;5052587;28;20025;-68
2021/08/21 04:15:53;;;;;;;6.78;3.53;;;18.00;63.60;;;;;;5034744;28;20047;-68
2021/08/21 04:18:19;;;;;;;4.65;3.60;;;18.00;63.80;;;;;;5052565;28;20100;-69
2021/08/21 04:20:45;;;;;;;6.15;3.40;;;18.00;63.80;;;;;;5052431;28;20108;-68
2021/08/21 04:23:11;;;;;;;11.48;3.20;;;18.00;63.80;;;;;;5052438;28;20355;-68
2021/08/21 04:25:37;;;;;;;9.45;3.30;;;18.00;63.70;;;;;;5052328;28;20048;-69
2021/08/21 04:28:03;;;;;;;4.93;3.55;;;18.00;63.70;;;;;;5052241;28;20534;-68
2021/08/21 04:30:29;;;;;;;12.93;4.20;;;18.00;63.80;;;;;;5052254;28;20064;-69
2021/08/21 04:32:55;;;;;;;6.78;3.90;;;18.00;64.00;;;;;;5051657;28;20013;-69
2021/08/21 04:35:21;;;;;;;9.38;4.05;;;18.00;64.00;;;;;;5049717;28;20060;-69
2021/08/21 04:37:47;;;;;;;4.50;3.20;;;18.00;64.10;;;;;;5052203;28;20021;-69
2021/08/21 04:40:13;;;;;;;6.03;3.10;;;18.00;64.20;;;;;;5052207;28;20385;-69
2021/08/21 04:42:39;;;;;;;4.18;3.10;;;18.00;64.10;;;;;;5052115;28;20067;-68
2021/08/21 04:45:06;;;;;;;4.53;3.45;;;18.10;64.20;;;;;;5052041;28;20485;-68
2021/08/21 04:47:32;;;;;;;4.88;3.25;;;18.10;64.30;;;;;;5052052;28;20390;-69
2021/08/21 04:49:58;;;;;;;4.75;2.80;;;18.10;64.20;;;;;;5034525;28;20001;-68
2021/08/21 04:52:24;;;;;;;5.18;3.28;;;18.10;64.20;;;;;;5051951;28;20104;-68
2021/08/21 04:54:50;;;;;;;5.93;3.35;;;18.20;64.20;;;;;;5052106;28;20098;-68
2021/08/21 04:57:17;;;;;;;5.72;3.67;;;18.20;64.30;;;;;;5034064;28;20478;-68
2021/08/21 04:59:42;;;;;;;8.32;3.97;;;18.30;64.40;;;;;;5052067;28;20029;-69
2021/08/21 05:02:09;;;;;;;4.72;3.22;;;18.30;64.50;;;;;;5051852;28;20363;-69
2021/08/21 05:04:35;;;;;;;8.35;3.53;;;18.40;64.40;;;;;;5033777;28;20033;-69
2021/08/21 05:07:01;;;;;;;6.32;3.85;;;18.40;64.20;;;;;;5052022;28;20029;-69
2021/08/21 05:09:26;;;;;;;6.75;3.63;;;18.50;64.20;;;;;;5054071;28;20017;-69
2021/08/21 05:11:53;;;;;;;10.07;5.10;;;18.50;64.20;;;;;;5055808;28;20016;-69
2021/08/21 05:14:18;;;;;;;12.30;5.18;;;18.60;64.50;;;;;;5055802;28;20050;-69
2021/08/21 05:16:46;;;;;;;11.35;5.22;;;18.60;64.50;;;;;;5037680;28;20086;-68
2021/08/21 05:19:26;;;;;;;17.17;6.72;;;18.70;64.50;;;;;;5055741;28;20021;-68
2021/08/21 05:21:55;;;;;;;18.65;7.00;;;18.70;64.60;;;;;;5023121;28;20028;-68
2021/08/21 05:24:21;;;;;;;18.65;7.22;;;18.80;64.40;;;;;;5055473;28;20056;-69
2021/08/21 05:26:47;;;;;;;15.30;7.75;;;18.90;65.10;;;;;;5055607;28;20052;-69
2021/08/21 05:29:15;;;;;;;18.60;7.55;;;18.90;64.40;;;;;;5055195;28;20464;-68
2021/08/21 05:31:41;;;;;;;25.48;7.40;;;18.90;64.20;;;;;;5055480;28;20013;-69
2021/08/21 05:34:12;;;;;;;51.60;9.70;;;19.00;64.20;;;;;;5055407;28;20021;-69
2021/08/21 05:36:39;;;;;;;20.85;7.35;;;19.10;64.20;;;;;;5055210;28;20031;-69
2021/08/21 05:39:10;;;;;;;21.73;6.70;;;19.10;64.00;;;;;;5055224;28;20021;-69
2021/08/21 05:41:36;;;;;;;17.20;6.68;;;19.20;63.90;;;;;;5055190;28;20103;-68
2021/08/21 05:44:02;;;;;;;18.10;5.93;;;19.20;63.90;;;;;;5055421;28;20664;-70
2021/08/21 05:46:28;;;;;;;23.95;6.03;;;19.30;63.70;;;;;;5044254;28;20025;-69
2021/08/21 05:48:54;;;;;;;35.92;7.40;;;19.40;63.60;;;;;;5055083;28;20013;-69
2021/08/21 05:51:20;;;;;;;24.67;6.80;;;19.40;63.50;;;;;;5055046;28;20070;-69
2021/08/21 05:53:46;;;;;;;38.70;8.43;;;19.50;63.50;;;;;;5055125;28;20109;-69
2021/08/21 05:56:11;;;;;;;14.55;6.07;;;19.60;63.50;;;;;;5055031;28;20496;-69
2021/08/21 05:58:37;;;;;;;19.25;6.10;;;19.60;63.20;;;;;;5036983;28;20028;-69
2021/08/21 06:01:03;;;;;;;27.02;5.60;;;19.70;63.10;;;;;;5054816;28;20021;-69
2021/08/21 06:03:28;;;;;;;15.30;5.60;;;19.80;63.00;;;;;;5051728;28;20497;-68
2021/08/21 06:05:54;;;;;;;18.58;5.57;;;19.80;62.80;;;;;;5054872;28;20436;-68
2021/08/21 06:08:20;;;;;;;10.30;4.80;;;19.80;62.60;;;;;;5054673;28;20532;-68
2021/08/21 06:10:46;;;;;;;17.65;5.20;;;19.90;62.50;;;;;;5054781;28;20021;-69
2021/08/21 06:13:11;;;;;;;14.50;5.00;;;20.00;62.40;;;;;;5054652;28;20470;-69
2021/08/21 06:15:37;;;;;;;21.40;5.68;;;20.00;62.30;;;;;;5054780;28;20078;-69
2021/08/21 06:18:03;;;;;;;18.45;5.07;;;20.10;62.30;;;;;;5036588;28;20115;-69
2021/08/21 06:20:29;;;;;;;13.82;5.47;;;20.20;62.20;;;;;;5053378;28;20045;-69
2021/08/21 06:22:55;;;;;;;10.00;5.35;;;20.30;62.20;;;;;;5054432;28;20432;-69
2021/08/21 06:25:21;;;;;;;17.05;6.03;;;20.30;62.00;;;;;;5054241;28;20104;-69
2021/08/21 06:27:47;;;;;;;13.55;4.97;;;20.40;61.90;;;;;;5054170;28;20037;-68
2021/08/21 06:30:12;;;;;;;14.13;7.95;;;20.50;61.70;;;;;;5054447;28;20096;-69
2021/08/21 06:32:39;;;;;;;10.45;4.75;;;20.50;61.60;;;;;;5054056;28;20108;-69
2021/08/21 06:35:05;;;;;;;12.55;5.97;;;20.50;61.40;;;;;;5048573;28;20021;-71
2021/08/21 06:37:31;;;;;;;12.35;5.68;;;20.60;61.40;;;;;;5053212;28;20025;-69
2021/08/21 06:39:57;;;;;;;14.77;5.53;;;20.70;61.10;;;;;;5054258;28;20563;-69
2021/08/21 06:42:22;;;;;;;13.68;6.80;;;20.70;61.00;;;;;;5053978;28;20017;-69
2021/08/21 06:44:48;;;;;;;11.85;6.28;;;20.80;60.80;;;;;;5054061;28;20025;-69
2021/08/21 06:47:16;;;;;;;13.13;5.80;;;20.80;60.70;;;;;;5054029;28;20072;-69
2021/08/21 06:49:42;;;;;;;16.90;6.88;;;20.90;60.60;;;;;;5054179;28;20009;-68
2021/08/21 06:52:08;;;;;;;16.85;6.68;;;21.00;60.50;;;;;;5053899;28;20021;-69
2021/08/21 06:54:33;;;;;;;11.60;6.10;;;21.10;60.40;;;;;;5053854;28;20029;-68
2021/08/21 06:56:59;;;;;;;9.75;5.68;;;21.10;60.10;;;;;;5053811;28;20390;-69
2021/08/21 06:59:25;;;;;;;12.50;6.18;;;21.20;60.00;;;;;;5054207;28;20028;-68
2021/08/21 07:01:51;;;;;;;21.13;8.35;;;21.30;59.90;;;;;;5053660;28;20025;-68
2021/08/21 07:04:17;;;;;;;17.35;7.85;;;21.30;59.80;;;;;;5053712;28;20025;-68
2021/08/21 07:06:42;;;;;;;19.30;10.55;;;21.40;59.70;;;;;;5053624;28;20474;-68
2021/08/21 07:09:08;;;;;;;20.95;10.63;;;21.50;59.50;;;;;;5053545;28;20021;-69
2021/08/21 07:11:34;;;;;;;16.75;9.75;;;21.50;59.20;;;;;;5053545;28;20017;-69
2021/08/21 07:14:00;;;;;;;20.52;10.10;;;21.60;59.10;;;;;;5053638;28;20021;-69
2021/08/21 07:16:25;;;;;;;25.42;10.55;;;21.70;58.90;;;;;;5035569;28;20459;-69
2021/08/21 07:18:51;;;;;;;21.92;10.93;;;21.70;58.70;;;;;;5053476;28;20394;-69
2021/08/21 07:21:17;;;;;;;19.05;11.70;;;21.80;58.70;;;;;;5035425;28;20024;-69
2021/08/21 07:23:43;;;;;;;23.98;10.75;;;21.80;58.50;;;;;;5053282;28;20044;-69
2021/08/21 07:26:09;;;;;;;19.55;11.05;;;21.90;58.20;;;;;;5053407;28;20051;-69
2021/08/21 07:28:34;;;;;;;20.95;11.90;;;21.90;57.90;;;;;;5053051;28;20470;-69
2021/08/21 07:31:01;;;;;;;18.92;10.55;;;22.00;58.10;;;;;;5053074;28;20048;-69
2021/08/21 07:33:27;;;;;;;17.75;11.50;;;22.00;58.20;;;;;;5035331;28;20433;-69
2021/08/21 07:35:53;;;;;;;19.45;11.75;;;22.10;58.30;;;;;;5046312;28;20020;-68
2021/08/21 07:38:19;;;;;;;19.15;11.02;;;22.20;58.10;;;;;;5052938;28;20017;-68
2021/08/21 07:40:45;;;;;;;22.67;11.32;;;22.30;57.90;;;;;;5052794;28;20112;-69
2021/08/21 07:43:11;;;;;;;20.25;11.18;;;22.40;57.70;;;;;;5053001;28;20487;-69
2021/08/21 07:45:37;;;;;;;16.20;10.40;;;22.40;57.40;;;;;;5052805;28;20029;-69
2021/08/21 07:48:03;;;;;;;18.65;12.30;;;22.50;57.30;;;;;;5053113;28;20036;-69
2021/08/21 07:50:29;;;;;;;18.23;11.02;;;22.60;56.70;;;;;;5034763;28;20021;-69
2021/08/21 07:52:55;;;;;;;18.90;11.25;;;22.70;56.70;;;;;;5052733;28;20104;-69
2021/08/21 07:55:20;;;;;;;17.02;10.57;;;22.80;56.60;;;;;;5052674;28;20036;-69
2021/08/21 07:57:46;;;;;;;18.67;11.13;;;22.80;56.40;;;;;;5052629;28;20025;-69
2021/08/21 08:00:13;;;;;;;16.15;10.55;;;22.90;56.40;;;;;;5052719;28;20108;-69
2021/08/21 08:02:43;;;;;;;18.88;11.55;;;23.00;56.50;;;;;;5052522;28;20492;-69
2021/08/21 08:05:09;;;;;;;15.52;9.95;;;23.10;56.20;;;;;;5052545;28;20103;-69
2021/08/21 08:07:35;;;;;;;14.80;9.70;;;23.20;56.10;;;;;;5034704;28;20100;-69
2021/08/21 08:10:01;;;;;;;14.57;9.93;;;23.30;55.80;;;;;;5052664;28;20458;-69
2021/08/21 08:12:26;;;;;;;17.85;11.80;;;23.30;55.50;;;;;;5052418;28;20489;-69
2021/08/21 08:14:52;;;;;;;17.83;10.50;;;23.40;55.10;;;;;;5052492;28;20528;-69
2021/08/21 08:17:18;;;;;;;18.50;10.93;;;23.50;55.10;;;;;;5052416;28;20497;-69
2021/08/21 08:19:44;;;;;;;17.10;10.93;;;23.60;54.80;;;;;;5052514;28;20078;-69
2021/08/21 08:22:09;;;;;;;18.13;11.32;;;23.60;54.60;;;;;;5034529;28;20076;-70
2021/08/21 08:24:35;;;;;;;16.80;10.60;;;23.70;54.50;;;;;;5052154;28;20028;-69
2021/08/21 08:27:01;;;;;;;17.88;10.07;;;23.80;54.70;;;;;;5034486;28;20111;-69
2021/08/21 08:29:27;;;;;;;17.50;10.00;;;23.90;54.30;;;;;;5052112;28;20045;-69
2021/08/21 08:31:52;;;;;;;20.80;11.45;;;23.90;54.20;;;;;;5052295;28;20025;-69
2021/08/21 08:34:18;;;;;;;12.90;9.65;;;24.00;54.20;;;;;;5052227;28;20028;-70
2021/08/21 08:36:44;;;;;;;16.67;9.15;;;24.10;53.80;;;;;;5052209;28;20382;-69
2021/08/21 08:39:10;;;;;;;14.00;9.55;;;24.20;53.70;;;;;;5052252;28;20056;-69
2021/08/21 08:41:36;;;;;;;14.10;8.88;;;24.30;53.10;;;;;;5052102;28;20532;-69
2021/08/21 08:44:02;;;;;;;12.20;8.10;;;24.40;53.20;;;;;;5053827;28;20382;-70
2021/08/21 08:46:28;;;;;;;9.77;6.78;;;24.40;52.90;;;;;;5056309;28;20351;-69
2021/08/21 08:49:00;;;;;;;11.50;6.60;;;24.50;52.90;;;;;;5056264;28;20012;-70
2021/08/21 08:51:26;;;;;;;9.80;6.25;;;24.60;52.00;;;;;;5056112;28;20112;-69
2021/08/21 08:53:52;;;;;;;10.50;6.55;;;24.70;52.00;;;;;;5056047;28;20009;-69
2021/08/21 08:56:18;;;;;;;7.10;6.05;;;24.70;52.40;;;;;;5055877;28;20027;-69
2021/08/21 08:58:44;;;;;;;8.52;6.28;;;24.80;52.40;;;;;;5055989;28;20021;-70
2021/08/21 09:01:09;;;;;;;9.55;6.53;;;24.80;51.80;;;;;;5055840;28;20043;-70
2021/08/21 09:03:36;;;;;;;5.57;4.47;;;24.90;51.40;;;;;;5055629;28;20029;-69
2021/08/21 09:06:01;;;;;;;8.32;4.97;;;25.00;51.40;;;;;;5055784;28;20420;-69
2021/08/21 09:08:30;;;;;;;5.47;4.18;;;25.00;50.90;;;;;;5055649;28;20075;-70
2021/08/21 09:10:57;;;;;;;5.35;3.78;;;25.10;51.10;;;;;;5055696;28;20021;-70
2021/08/21 09:13:24;;;;;;;6.20;4.45;;;25.20;51.30;;;;;;5055504;28;20100;-69
2021/08/21 09:15:52;;;;;;;5.53;4.03;;;25.20;50.90;;;;;;5055776;28;20021;-69
2021/08/21 09:18:29;;;;;;;5.68;3.88;;;25.30;50.90;;;;;;5055589;28;20048;-70
2021/08/21 09:21:04;;;;;;;6.30;3.72;;;25.40;50.80;;;;;;5055557;28;20017;-69
2021/08/21 09:23:39;;;;;;;6.95;4.53;;;25.40;49.50;;;;;;5055301;28;20017;-69
2021/08/21 09:26:12;;;;;;;8.70;3.90;;;25.50;49.30;;;;;;5055432;28;20048;-69
2021/08/21 09:28:39;;;;;;;4.80;3.78;;;25.50;49.60;;;;;;5055207;28;20047;-69
2021/08/21 09:31:17;;;;;;;5.13;3.15;;;25.60;49.60;;;;;;5055247;28;20028;-69
2021/08/21 09:34:01;;;;;;;9.73;4.03;;;25.60;49.60;;;;;;5021837;28;20017;-69
2021/08/21 09:36:33;;;;;;;6.63;4.07;;;25.70;49.10;;;;;;5055148;28;20021;-69
2021/08/21 09:39:04;;;;;;;7.88;3.30;;;25.80;48.50;;;;;;5055547;28;20025;-72
2021/08/21 09:41:50;;;;;;;4.78;3.30;;;25.80;48.30;;;;;;5055117;28;20074;-70
2021/08/21 09:44:27;;;;;;;5.05;3.22;;;25.90;49.10;;;;;;5054872;28;20064;-70
2021/08/21 09:47:23;;;;;;;5.93;3.70;;;26.00;48.50;;;;;;5055118;28;20021;-70
2021/08/21 09:49:50;;;;;;;4.43;3.22;;;26.00;48.10;;;;;;5040141;28;20370;-70
2021/08/21 09:52:17;;;;;;;9.80;4.00;;;26.10;48.70;;;;;;5042406;28;20016;-70
2021/08/21 09:55:04;;;;;;;6.30;4.05;;;26.10;47.60;;;;;;5054715;28;20027;-70
2021/08/21 09:57:31;;;;;;;5.97;3.88;;;26.20;46.70;;;;;;5054161;28;20060;-70
2021/08/21 10:00:00;;;;;;;5.25;3.88;;;26.20;46.90;;;;;;5036961;28;20036;-70
2021/08/21 10:02:30;;;;;;;8.40;4.10;;;26.30;47.10;;;;;;5054664;28;20492;-70
2021/08/21 10:04:55;;;;;;;7.38;3.42;;;26.30;46.70;;;;;;5054600;28;20095;-70
2021/08/21 10:07:25;;;;;;;7.15;3.72;;;26.40;47.40;;;;;;5054474;28;20360;-70
2021/08/21 10:09:52;;;;;;;10.30;3.83;;;26.40;46.40;;;;;;5036623;28;20009;-69
2021/08/21 10:12:21;;;;;;;7.45;4.20;;;26.50;46.60;;;;;;5054515;28;20470;-69
2021/08/21 10:14:48;;;;;;;6.00;3.58;;;26.50;47.10;;;;;;5036744;28;20013;-69
2021/08/21 10:17:18;;;;;;;4.88;3.90;;;26.60;46.80;;;;;;5036649;28;20033;-70
2021/08/21 10:19:46;;;;;;;5.85;3.70;;;26.60;46.60;;;;;;5036726;28;20044;-70
2021/08/21 10:22:12;;;;;;;6.30;4.35;;;26.70;46.70;;;;;;5054376;28;20535;-69
2021/08/21 10:24:49;;;;;;;6.30;4.45;;;26.80;46.10;;;;;;5054089;28;20038;-69
2021/08/21 10:28:01;;;;;;;7.57;4.72;;;26.80;45.80;;;;;;5036413;28;20543;-69
2021/08/21 10:30:42;;;;;;;9.52;5.35;;;26.90;46.60;;;;;;5047802;28;20438;-70
2021/08/21 10:33:08;;;;;;;9.15;4.88;;;27.00;45.90;;;;;;5054127;28;20095;-69
2021/08/21 10:35:47;;;;;;;12.43;5.35;;;27.10;45.80;;;;;;5054250;28;20032;-69
2021/08/21 10:38:35;;;;;;;10.23;5.18;;;27.10;45.40;;;;;;5054200;28;20028;-69
2021/08/21 10:41:10;;;;;;;11.38;4.88;;;27.20;45.50;;;;;;5054165;28;20409;-71
2021/08/21 10:43:49;;;;;;;7.25;4.40;;;27.20;45.10;;;;;;5053879;28;20017;-69
2021/08/21 10:46:30;;;;;;;9.98;4.68;;;27.30;45.50;;;;;;5036231;28;20109;-70
2021/08/21 10:49:00;;;;;;;6.15;3.63;;;27.30;44.90;;;;;;5053962;28;20024;-70
2021/08/21 10:51:37;;;;;;;8.65;4.35;;;27.40;44.40;;;;;;5053821;28;20024;-70
2021/08/21 10:54:24;;;;;;;6.53;3.80;;;27.40;44.10;;;;;;5053819;28;20466;-69
2021/08/21 10:56:51;;;;;;;11.65;4.45;;;27.50;43.60;;;;;;5053841;28;20021;-69
2021/08/21 10:59:40;;;;;;;6.40;3.80;;;27.50;42.50;;;;;;5053739;28;20086;-70
2021/08/21 11:02:21;;;;;;;5.43;3.40;;;27.60;43.60;;;;;;5053683;28;20023;-70
2021/08/21 11:04:47;;;;;;;6.72;3.80;;;27.60;43.20;;;;;;5053710;28;20031;-69
2021/08/21 11:07:33;;;;;;;7.25;4.53;;;27.70;43.20;;;;;;5052943;28;20017;-69
2021/08/21 11:10:16;;;;;;;8.25;3.72;;;27.70;42.70;;;;;;5022462;28;20059;-69
2021/08/21 11:12:45;;;;;;;5.80;3.55;;;27.70;41.90;;;;;;5053420;28;20028;-69
2021/08/21 11:15:15;;;;;;;9.20;4.13;;;27.80;42.30;;;;;;5053591;28;20029;-70
2021/08/21 11:17:42;;;;;;;5.85;3.40;;;27.80;41.70;;;;;;5037535;28;20072;-70
2021/08/21 11:20:31;;;;;;;7.45;3.88;;;27.90;41.60;;;;;;5053473;28;20115;-70
2021/08/21 11:23:20;;;;;;;8.88;4.82;;;27.90;41.80;;;;;;5053293;28;20025;-70
2021/08/21 11:25:46;;;;;;;7.90;4.43;;;28.00;41.40;;;;;;5032571;28;20414;-70
2021/08/21 11:28:22;;;;;;;10.20;3.85;;;28.00;39.70;;;;;;5052917;28;20060;-69
2021/08/21 11:31:08;;;;;;;3.72;2.90;;;28.00;40.90;;;;;;5053307;28;20414;-69
2021/08/21 11:33:34;;;;;;;9.35;3.90;;;28.10;41.30;;;;;;5035213;28;20398;-69
2021/08/21 11:36:01;;;;;;;7.97;4.03;;;28.10;40.30;;;;;;5053031;28;20021;-70
2021/08/21 11:38:32;;;;;;;6.75;3.47;;;28.20;40.50;;;;;;5052975;28;20025;-70
2021/08/21 11:41:00;;;;;;;4.65;3.30;;;28.30;40.60;;;;;;5053087;28;20059;-70
2021/08/21 11:43:33;;;;;;;16.40;4.07;;;28.40;40.10;;;;;;5052961;28;20029;-70
2021/08/21 11:46:01;;;;;;;5.03;2.92;;;28.40;40.00;;;;;;5053026;28;20029;-69
2021/08/21 11:48:33;;;;;;;6.15;3.40;;;28.50;40.30;;;;;;5034974;28;20044;-70
2021/08/21 11:51:00;;;;;;;7.03;3.28;;;28.50;40.10;;;;;;5053016;28;20023;-69
2021/08/21 11:53:37;;;;;;;11.02;3.22;;;28.60;39.80;;;;;;5052639;28;20013;-70
2021/08/21 11:56:03;;;;;;;5.30;3.38;;;28.70;39.50;;;;;;5052834;28;20013;-70
2021/08/21 11:58:43;;;;;;;8.27;4.03;;;28.70;39.10;;;;;;5034790;28;20036;-70
2021/08/21 12:01:11;;;;;;;8.18;3.95;;;28.70;38.10;;;;;;5052698;28;20024;-69
2021/08/21 12:06:29;;;;;;;5.97;2.60;;;28.80;38.90;;;;;;5052960;28;20039;-70
2021/08/21 12:09:09;;;;;;;4.57;3.20;;;28.80;39.10;;;;;;5052335;28;20121;-70
2021/08/21 12:11:37;;;;;;;5.40;3.35;;;28.90;38.70;;;;;;5052482;28;20051;-70
2021/08/21 12:14:04;;;;;;;13.02;2.78;;;29.00;37.80;;;;;;5052530;28;20159;-70
2021/08/21 12:16:31;;;;;;;6.03;3.63;;;29.00;37.70;;;;;;5052364;28;20104;-70
2021/08/21 12:18:58;;;;;;;7.25;3.75;;;29.00;37.10;;;;;;5051457;28;20021;-70
2021/08/21 12:21:24;;;;;;;6.10;3.13;;;29.00;37.30;;;;;;5052215;28;20029;-71
2021/08/21 12:23:53;;;;;;;6.13;2.85;;;29.00;36.40;;;;;;5052239;28;20029;-70
2021/08/21 12:26:33;;;;;;;5.88;3.13;;;29.00;36.40;;;;;;5052287;28;20094;-70
2021/08/21 12:28:59;;;;;;;5.55;3.28;;;29.10;36.60;;;;;;5052093;28;20040;-71
2021/08/21 12:31:36;;;;;;;5.15;3.38;;;29.10;36.10;;;;;;5052259;28;20051;-71
2021/08/21 12:34:02;;;;;;;4.60;3.00;;;29.10;36.40;;;;;;5052337;28;20032;-71
2021/08/21 12:36:28;;;;;;;6.75;3.33;;;29.20;36.50;;;;;;5052115;28;20037;-71
2021/08/21 12:39:07;;;;;;;5.60;3.33;;;29.20;36.10;;;;;;5030980;28;20040;-71
2021/08/21 12:41:47;;;;;;;5.18;3.15;;;29.30;35.80;;;;;;5051305;28;20104;-71
2021/08/21 12:44:14;;;;;;;6.68;3.17;;;29.30;35.50;;;;;;5052075;28;20167;-71
2021/08/21 12:46:53;;;;;;;5.88;3.00;;;29.40;35.40;;;;;;5052060;28;20037;-71
2021/08/21 12:49:39;;;;;;;6.22;2.80;;;29.40;35.60;;;;;;5051998;28;20021;-70
2021/08/21 12:52:16;;;;;;;5.07;3.13;;;29.40;35.10;;;;;;5051934;28;20485;-71